Time;durP1;ratioP1;P1;durP2;ratioP2;P2;SDS_P1;SDS_P2;PMS_P1;PMS_P2;Temp;Humidity;BMP_temperature;BMP_pressure;BME280_temperature;BME280_humidity;BME280_pressure;Samples;Min_cycle;Max_cycle;Signal;HPM_P1;HPM_P2
2024/03/22 00:00:34;;;;;;;11.20;3.90;;;;;;;;;;10187400;28;20043;-75
2024/03/22 00:05:36;;;;;;;11.80;5.95;;;;;;;;;;10199292;28;20110;-76
2024/03/22 00:10:38;;;;;;;17.02;7.30;;;;;;;;;;10192306;28;20509;-75
2024/03/22 00:15:42;;;;;;;20.70;8.75;;;;;;;;;;10202698;28;20493;-75
2024/03/22 00:20:44;;;;;;;;;;;;;;;;;;10198973;28;20047;-76
2024/03/22 00:25:46;;;;;;;9.90;4.65;;;;;;;;;;10183231;28;19966;-75
2024/03/22 00:30:50;;;;;;;9.50;3.65;;;;;;;;;;10210898;28;20170;-75
2024/03/22 00:35:52;;;;;;;7.23;3.90;;;;;;;;;;10196801;28;20047;-76
2024/03/22 00:40:54;;;;;;;11.18;4.53;;;;;;;;;;10187027;28;20303;-74
2024/03/22 00:45:58;;;;;;;17.80;6.47;;;;;;;;;;10199188;29;20106;-75
2024/03/22 00:50:59;;;;;;;16.33;4.72;;;;;;;;;;10197108;28;20042;-75
2024/03/22 00:56:01;;;;;;;18.40;7.63;;;;;;;;;;10199537;28;20062;-76
2024/03/22 01:01:05;;;;;;;7.97;3.83;;;;;;;;;;10212239;28;20047;-75
2024/03/22 01:06:08;;;;;;;17.45;6.60;;;;;;;;;;10197488;28;20086;-74
2024/03/22 01:11:10;;;;;;;11.80;4.68;;;;;;;;;;10198104;28;20051;-75
2024/03/22 01:16:15;;;;;;;17.88;7.28;;;;;;;;;;10198678;28;20123;-75
2024/03/22 01:21:18;;;;;;;20.88;6.82;;;;;;;;;;10182169;28;20572;-75
2024/03/22 01:26:19;;;;;;;10.85;4.53;;;;;;;;;;10193390;28;20051;-75
2024/03/22 01:31:24;;;;;;;12.43;4.82;;;;;;;;;;10199126;28;20040;-74
2024/03/22 01:36:26;;;;;;;;;;;;;;;;;;10200319;28;20051;-75
2024/03/22 01:41:27;;;;;;;13.52;5.55;;;;;;;;;;10198328;28;20463;-75
2024/03/22 01:46:31;;;;;;;21.80;7.82;;;;;;;;;;10196125;28;20051;-76
2024/03/22 01:51:33;;;;;;;17.42;6.72;;;;;;;;;;10201693;28;20036;-74
2024/03/22 01:56:36;;;;;;;15.93;6.90;;;;;;;;;;10201876;28;20044;-74
2024/03/22 02:01:40;;;;;;;16.48;6.38;;;;;;;;;;10198507;28;20110;-75
2024/03/22 02:06:42;;;;;;;15.73;6.00;;;;;;;;;;10208907;28;20247;-74
2024/03/22 02:11:46;;;;;;;22.63;8.55;;;;;;;;;;10207079;28;20386;-75
2024/03/22 02:16:50;;;;;;;22.25;7.88;;;;;;;;;;10184060;28;20381;-76
2024/03/22 02:21:52;;;;;;;11.10;4.78;;;;;;;;;;10198642;28;20040;-75
2024/03/22 02:26:56;;;;;;;18.95;7.97;;;;;;;;;;10200945;28;20095;-75
2024/03/22 02:32:01;;;;;;;10.63;4.57;;;;;;;;;;10196217;28;20107;-75
2024/03/22 02:37:03;;;;;;;23.20;7.78;;;;;;;;;;10198681;28;20046;-75
2024/03/22 02:42:07;;;;;;;8.25;3.47;;;;;;;;;;10194896;28;20043;-73
2024/03/22 02:47:09;;;;;;;13.63;4.45;;;;;;;;;;10208401;28;20500;-76
2024/03/22 02:52:11;;;;;;;19.23;7.85;;;;;;;;;;10190987;28;20051;-76
2024/03/22 02:57:14;;;;;;;21.65;7.72;;;;;;;;;;10196101;28;20047;-75
2024/03/22 03:02:16;;;;;;;21.15;7.25;;;;;;;;;;10188825;28;20059;-74
2024/03/22 03:07:18;;;;;;;18.60;7.38;;;;;;;;;;10188751;28;20048;-76
2024/03/22 03:12:22;;;;;;;20.50;7.97;;;;;;;;;;10195112;28;20048;-75
2024/03/22 03:17:24;;;;;;;20.17;7.70;;;;;;;;;;10197476;28;20050;-75
2024/03/22 03:22:25;;;;;;;17.60;6.32;;;;;;;;;;10195181;28;20044;-75
2024/03/22 03:27:28;;;;;;;23.48;7.75;;;;;;;;;;10203004;28;20051;-74
2024/03/22 03:32:30;;;;;;;22.58;7.78;;;;;;;;;;10204402;29;20059;-75
2024/03/22 03:37:32;;;;;;;21.88;8.30;;;;;;;;;;10198363;28;20054;-75
2024/03/22 03:42:35;;;;;;;20.50;7.05;;;;;;;;;;10199213;28;20047;-75
2024/03/22 03:47:37;;;;;;;24.05;8.05;;;;;;;;;;10201550;28;20487;-74
2024/03/22 03:52:42;;;;;;;19.15;7.43;;;;;;;;;;10192744;28;20053;-74
2024/03/22 03:57:45;;;;;;;11.65;5.32;;;;;;;;;;10198770;28;20048;-75
2024/03/22 04:02:49;;;;;;;16.03;5.90;;;;;;;;;;10200338;28;20059;-75
2024/03/22 04:07:53;;;;;;;13.93;5.43;;;;;;;;;;10199880;28;20036;-76
2024/03/22 04:12:58;;;;;;;21.83;8.52;;;;;;;;;;10185448;28;20450;-75
2024/03/22 04:18:00;;;;;;;16.38;6.65;;;;;;;;;;10200946;28;20051;-76
2024/03/22 04:23:03;;;;;;;22.00;8.48;;;;;;;;;;10178906;28;20047;-75
2024/03/22 04:28:07;;;;;;;12.30;3.30;;;;;;;;;;10196386;28;20043;-76
2024/03/22 04:33:09;;;;;;;9.67;4.67;;;;;;;;;;10198708;28;20528;-75
2024/03/22 04:38:12;;;;;;;13.00;5.10;;;;;;;;;;10197350;28;20110;-76
2024/03/22 04:43:16;;;;;;;20.30;8.43;;;;;;;;;;10196138;29;20050;-75
2024/03/22 04:48:20;;;;;;;22.02;8.98;;;;;;;;;;10200420;28;20117;-77
2024/03/22 04:53:24;;;;;;;19.30;7.53;;;;;;;;;;10181793;28;20473;-76
2024/03/22 04:58:28;;;;;;;9.52;3.35;;;;;;;;;;10196869;28;20313;-76
2024/03/22 05:03:31;;;;;;;19.90;7.50;;;;;;;;;;10182737;28;20055;-76
2024/03/22 05:08:34;;;;;;;16.23;6.32;;;;;;;;;;10184517;28;20051;-74
2024/03/22 05:13:39;;;;;;;23.30;9.40;;;;;;;;;;10196361;28;20046;-75
2024/03/22 05:18:41;;;;;;;15.18;5.82;;;;;;;;;;10191708;28;20055;-75
2024/03/22 05:23:43;;;;;;;22.15;8.43;;;;;;;;;;10195740;28;20062;-75
2024/03/22 05:28:46;;;;;;;15.38;5.88;;;;;;;;;;10196436;28;20042;-76
2024/03/22 05:33:48;;;;;;;19.38;7.65;;;;;;;;;;10191676;28;20043;-74
2024/03/22 05:38:50;;;;;;;18.83;6.78;;;;;;;;;;10192135;28;20048;-76
2024/03/22 05:43:55;;;;;;;17.67;6.18;;;;;;;;;;10193216;28;20040;-75
2024/03/22 05:48:57;;;;;;;17.75;5.63;;;;;;;;;;10199013;28;20512;-73
2024/03/22 05:53:59;;;;;;;15.85;6.60;;;;;;;;;;10197058;28;20058;-76
2024/03/22 05:59:03;;;;;;;18.55;7.28;;;;;;;;;;10192050;28;20047;-75
2024/03/22 06:04:05;;;;;;;6.53;3.70;;;;;;;;;;10198196;28;20039;-75
2024/03/22 06:09:10;;;;;;;10.23;3.90;;;;;;;;;;10196432;28;20501;-76
2024/03/22 06:14:14;;;;;;;7.32;3.72;;;;;;;;;;10193658;28;20047;-75
2024/03/22 06:19:16;;;;;;;11.70;4.82;;;;;;;;;;10203495;28;20039;-74
2024/03/22 06:24:20;;;;;;;11.70;5.32;;;;;;;;;;10199301;28;20098;-75
2024/03/22 06:29:32;;;;;;;13.77;4.32;;;;;;;;;;10194134;28;20063;-75
2024/03/22 06:34:38;;;;;;;12.32;5.75;;;;;;;;;;10190732;28;20185;-77
2024/03/22 06:39:40;;;;;;;5.20;2.85;;;;;;;;;;10197268;28;20040;-75
2024/03/22 06:44:44;;;;;;;10.80;4.78;;;;;;;;;;10197764;28;20508;-76
2024/03/22 06:49:46;;;;;;;11.68;5.10;;;;;;;;;;10201203;28;20122;-75
2024/03/22 06:54:52;;;;;;;12.02;4.95;;;;;;;;;;10194656;28;20058;-75
2024/03/22 06:59:56;;;;;;;9.80;4.88;;;;;;;;;;10202567;28;20071;-76
2024/03/22 07:04:58;;;;;;;11.57;5.88;;;;;;;;;;10207864;28;20056;-77
2024/03/22 07:09:59;;;;;;;12.07;6.22;;;;;;;;;;10189835;28;20626;-77
2024/03/22 07:15:06;;;;;;;12.48;5.90;;;;;;;;;;10211129;28;20054;-76
2024/03/22 07:25:45;;;;;;;9.82;5.70;;;;;;;;;;10491167;27;20454;-76
2024/03/22 07:30:47;;;;;;;11.27;6.07;;;;;;;;;;10450534;28;20055;-76
2024/03/22 07:35:49;;;;;;;10.35;6.22;;;;;;;;;;10445136;28;20521;-77
2024/03/22 07:40:54;;;;;;;10.55;5.85;;;;;;;;;;10452842;28;20037;-76
2024/03/22 07:45:57;;;;;;;10.63;6.18;;;;;;;;;;10447926;28;20057;-76
2024/03/22 07:50:59;;;;;;;11.70;5.50;;;;;;;;;;10454782;28;20049;-76
2024/03/22 07:56:04;;;;;;;11.40;6.00;;;;;;;;;;10441635;28;20044;-76
2024/03/22 08:01:07;;;;;;;8.88;5.13;;;;;;;;;;10429936;28;20052;-76
2024/03/22 08:06:10;;;;;;;11.70;5.32;;;;;;;;;;10444481;28;20044;-79
2024/03/22 08:11:13;;;;;;;7.13;3.45;;;;;;;;;;10447597;28;20102;-76
2024/03/22 08:16:14;;;;;;;11.35;5.78;;;;;;;;;;10428324;28;20060;-76
2024/03/22 08:21:16;;;;;;;12.95;6.25;;;;;;;;;;10447196;28;20033;-77
2024/03/22 08:26:20;;;;;;;11.60;5.90;;;;;;;;;;10441829;28;20482;-77
2024/03/22 08:31:25;;;;;;;8.55;5.10;;;;;;;;;;10441055;28;20045;-77
2024/03/22 08:36:27;;;;;;;7.00;5.10;;;;;;;;;;10421414;28;20079;-77
2024/03/22 08:41:31;;;;;;;8.93;5.38;;;;;;;;;;10413919;28;20052;-77
2024/03/22 08:46:33;;;;;;;7.82;5.22;;;;;;;;;;10412613;28;20049;-77
2024/03/22 08:51:35;;;;;;;11.85;6.28;;;;;;;;;;10405363;28;20038;-76
2024/03/22 08:56:39;;;;;;;9.27;5.75;;;;;;;;;;10421139;28;20053;-77
2024/03/22 09:01:41;;;;;;;9.57;6.00;;;;;;;;;;10415755;28;20041;-77
2024/03/22 09:06:45;;;;;;;8.45;6.22;;;;;;;;;;10412997;28;20057;-77
2024/03/22 09:11:48;;;;;;;9.85;7.15;;;;;;;;;;10410605;28;20499;-77
2024/03/22 09:16:50;;;;;;;8.85;6.50;;;;;;;;;;10417759;28;20502;-77
2024/03/22 09:21:52;;;;;;;7.85;4.93;;;;;;;;;;10412640;28;20044;-77
2024/03/22 09:26:55;;;;;;;8.20;5.78;;;;;;;;;;10411170;28;20049;-78
2024/03/22 09:31:57;;;;;;;9.10;5.75;;;;;;;;;;10403817;28;20056;-78
2024/03/22 09:36:59;;;;;;;10.32;6.38;;;;;;;;;;10411129;28;20063;-78
2024/03/22 09:42:06;;;;;;;8.35;5.20;;;;;;;;;;10410986;28;20071;-78
2024/03/22 09:47:09;;;;;;;6.00;5.25;;;;;;;;;;10408355;28;20055;-77
2024/03/22 09:52:12;;;;;;;5.72;4.57;;;;;;;;;;10417887;28;20041;-77
2024/03/22 09:57:16;;;;;;;6.60;5.15;;;;;;;;;;10409302;28;20045;-76
2024/03/22 10:02:19;;;;;;;6.25;5.18;;;;;;;;;;10410905;28;20187;-77
2024/03/22 10:07:21;;;;;;;6.88;4.80;;;;;;;;;;10418398;28;20052;-77
2024/03/22 10:12:25;;;;;;;8.68;5.32;;;;;;;;;;10438542;28;20049;-77
2024/03/22 10:17:27;;;;;;;8.32;5.10;;;;;;;;;;10427060;28;20049;-76
2024/03/22 10:22:31;;;;;;;9.93;4.50;;;;;;;;;;10416454;28;20042;-77
2024/03/22 10:27:34;;;;;;;7.38;4.90;;;;;;;;;;10425280;28;20136;-77
2024/03/22 10:32:36;;;;;;;6.82;4.78;;;;;;;;;;10415950;28;20752;-76
2024/03/22 10:37:39;;;;;;;10.48;5.35;;;;;;;;;;10390367;28;20681;-77
2024/03/22 10:42:45;;;;;;;6.45;4.72;;;;;;;;;;10414266;28;20356;-77
2024/03/22 10:47:48;;;;;;;9.82;4.65;;;;;;;;;;10413778;28;20048;-77
2024/03/22 10:52:53;;;;;;;8.45;4.82;;;;;;;;;;10419456;28;20473;-77
2024/03/22 10:57:56;;;;;;;5.13;4.43;;;;;;;;;;10409173;28;20145;-77
2024/03/22 11:02:59;;;;;;;11.20;5.57;;;;;;;;;;10413651;28;20042;-76
2024/03/22 11:08:02;;;;;;;5.97;5.00;;;;;;;;;;10394154;28;20045;-76
2024/03/22 11:13:06;;;;;;;6.85;4.68;;;;;;;;;;10399803;28;20045;-77
2024/03/22 11:18:10;;;;;;;7.32;4.80;;;;;;;;;;10420681;28;20494;-77
2024/03/22 11:23:13;;;;;;;6.07;4.85;;;;;;;;;;10414945;28;20033;-79
2024/03/22 11:28:17;;;;;;;7.10;4.85;;;;;;;;;;10413462;28;20052;-77
2024/03/22 11:33:19;;;;;;;5.38;4.35;;;;;;;;;;10406080;28;20118;-77
2024/03/22 11:38:23;;;;;;;6.28;4.68;;;;;;;;;;10412071;28;20052;-77
2024/03/22 11:43:27;;;;;;;6.22;4.65;;;;;;;;;;10421163;28;20498;-76
2024/03/22 11:48:29;;;;;;;6.43;4.55;;;;;;;;;;10408919;28;20045;-77
2024/03/22 11:53:32;;;;;;;10.25;4.82;;;;;;;;;;10408521;28;20067;-77
2024/03/22 11:58:36;;;;;;;7.70;4.88;;;;;;;;;;10408605;28;20350;-77
2024/03/22 12:03:40;;;;;;;5.63;4.70;;;;;;;;;;10417338;28;20049;-77
2024/03/22 12:08:42;;;;;;;6.47;4.20;;;;;;;;;;10424887;28;20037;-78
2024/03/22 12:13:47;;;;;;;5.90;4.40;;;;;;;;;;10416454;28;20143;-77
2024/03/22 12:18:49;;;;;;;8.30;4.15;;;;;;;;;;10410699;28;20514;-78
2024/03/22 12:23:50;;;;;;;5.88;4.35;;;;;;;;;;10419454;28;20490;-78
2024/03/22 12:28:54;;;;;;;6.55;4.53;;;;;;;;;;10416869;28;20063;-77
2024/03/22 12:33:55;;;;;;;6.38;4.22;;;;;;;;;;10415879;28;20084;-77
2024/03/22 12:38:57;;;;;;;7.22;4.20;;;;;;;;;;10399964;28;20775;-77
2024/03/22 12:44:00;;;;;;;8.43;4.18;;;;;;;;;;10410238;28;20037;-76
2024/03/22 12:49:04;;;;;;;7.28;4.50;;;;;;;;;;10417007;28;20143;-77
2024/03/22 12:54:08;;;;;;;6.18;4.15;;;;;;;;;;10417578;28;20465;-78
2024/03/22 12:59:13;;;;;;;8.73;4.32;;;;;;;;;;10411803;28;20547;-77
2024/03/22 13:04:17;;;;;;;7.03;4.10;;;;;;;;;;10410425;28;20044;-76
2024/03/22 13:09:21;;;;;;;6.00;4.13;;;;;;;;;;10407933;28;20049;-76
2024/03/22 13:14:25;;;;;;;5.70;3.67;;;;;;;;;;10411230;28;20131;-76
2024/03/22 13:19:27;;;;;;;5.15;3.75;;;;;;;;;;10407974;28;20056;-76
2024/03/22 13:24:29;;;;;;;5.28;3.45;;;;;;;;;;10409369;28;20080;-76
2024/03/22 13:29:34;;;;;;;4.00;3.33;;;;;;;;;;10408153;28;20151;-77
2024/03/22 13:34:36;;;;;;;7.10;3.60;;;;;;;;;;10414086;28;20766;-77
2024/03/22 13:39:39;;;;;;;5.88;3.20;;;;;;;;;;10408487;28;20128;-77
2024/03/22 13:44:43;;;;;;;5.75;3.33;;;;;;;;;;10413927;28;20044;-77
2024/03/22 13:49:45;;;;;;;4.70;3.17;;;;;;;;;;10414253;28;20045;-76
2024/03/22 13:54:47;;;;;;;2.90;2.28;;;;;;;;;;10413690;28;20135;-76
2024/03/22 13:59:50;;;;;;;5.90;3.20;;;;;;;;;;10411985;28;20067;-77
2024/03/22 14:04:52;;;;;;;5.03;2.78;;;;;;;;;;10411325;28;20048;-77
2024/03/22 14:09:54;;;;;;;5.03;2.75;;;;;;;;;;10413144;28;20049;-77
2024/03/22 14:14:56;;;;;;;;;;;;;;;;;;10411021;28;22051;-76
2024/03/22 14:19:59;;;;;;;4.28;3.00;;;;;;;;;;10415823;28;20370;-77
2024/03/22 14:25:02;;;;;;;5.32;2.70;;;;;;;;;;10406690;28;20053;-77
2024/03/22 14:30:07;;;;;;;3.10;2.58;;;;;;;;;;10413437;28;20037;-77
2024/03/22 14:35:11;;;;;;;5.30;2.85;;;;;;;;;;10406743;28;20433;-77
2024/03/22 14:40:14;;;;;;;4.22;2.50;;;;;;;;;;10429624;28;20107;-76
2024/03/22 14:45:21;;;;;;;4.35;2.13;;;;;;;;;;10411933;28;20047;-77
2024/03/22 14:50:24;;;;;;;3.05;2.10;;;;;;;;;;10407154;28;20052;-76
2024/03/22 14:55:26;;;;;;;4.35;2.58;;;;;;;;;;10408227;28;20222;-77
2024/03/22 15:00:28;;;;;;;5.23;2.63;;;;;;;;;;10411908;28;20452;-76
2024/03/22 15:05:32;;;;;;;2.88;1.27;;;;;;;;;;10402839;28;22320;-76
2024/03/22 15:10:34;;;;;;;2.85;2.08;;;;;;;;;;10405222;28;20134;-77
2024/03/22 15:15:36;;;;;;;4.63;2.00;;;;;;;;;;10412044;28;20049;-76
2024/03/22 15:20:39;;;;;;;4.13;2.05;;;;;;;;;;10409448;28;20060;-76
2024/03/22 15:25:42;;;;;;;3.47;1.90;;;;;;;;;;10403695;28;20057;-76
2024/03/22 15:30:44;;;;;;;2.03;1.27;;;;;;;;;;10409558;28;20704;-76
2024/03/22 15:35:49;;;;;;;3.77;1.40;;;;;;;;;;10407509;28;20052;-78
2024/03/22 15:41:00;;;;;;;4.88;2.88;;;;;;;;;;10407276;28;20299;-77
2024/03/22 15:46:03;;;;;;;3.60;2.15;;;;;;;;;;10396441;28;20053;-76
2024/03/22 15:51:08;;;;;;;2.90;1.70;;;;;;;;;;10412270;28;20045;-75
2024/03/22 15:56:09;;;;;;;3.38;1.70;;;;;;;;;;10409679;28;20501;-76
2024/03/22 16:01:11;;;;;;;2.33;1.40;;;;;;;;;;10414597;28;20045;-75
2024/03/22 16:06:15;;;;;;;2.92;1.40;;;;;;;;;;10394590;28;20049;-76
2024/03/22 16:11:17;;;;;;;1.38;0.90;;;;;;;;;;10398988;28;20053;-77
2024/03/22 16:16:18;;;;;;;1.60;1.20;;;;;;;;;;10415544;28;20041;-77
2024/03/22 16:21:24;;;;;;;2.22;1.15;;;;;;;;;;10408383;28;20557;-77
2024/03/22 16:26:27;;;;;;;4.88;1.27;;;;;;;;;;10416772;28;20098;-75
2024/03/22 16:31:29;;;;;;;3.20;1.70;;;;;;;;;;10416137;28;20810;-76
2024/03/22 16:36:33;;;;;;;3.58;1.38;;;;;;;;;;10417778;28;20410;-74
2024/03/22 16:41:34;;;;;;;0.93;0.90;;;;;;;;;;10413290;28;20061;-75
2024/03/22 16:46:36;;;;;;;2.40;1.15;;;;;;;;;;10411354;28;20045;-75
2024/03/22 16:51:39;;;;;;;0.55;0.55;;;;;;;;;;10413047;28;20156;-75
2024/03/22 16:56:41;;;;;;;;;;;;;;;;;;10402199;28;20084;-75
2024/03/22 17:01:43;;;;;;;1.65;0.90;;;;;;;;;;10416613;28;20003;-75
2024/03/22 17:06:48;;;;;;;2.60;1.20;;;;;;;;;;10415497;28;20237;-76
2024/03/22 17:11:50;;;;;;;3.00;1.30;;;;;;;;;;10411973;28;20048;-76
2024/03/22 17:16:53;;;;;;;2.65;1.50;;;;;;;;;;10408770;28;20216;-76
2024/03/22 17:21:57;;;;;;;2.47;1.25;;;;;;;;;;10415229;28;20426;-77
2024/03/22 17:27:01;;;;;;;3.75;1.73;;;;;;;;;;10398796;28;20081;-76
2024/03/22 17:32:03;;;;;;;2.88;1.30;;;;;;;;;;10412118;28;20052;-75
2024/03/22 17:37:06;;;;;;;3.35;1.85;;;;;;;;;;10411110;28;20148;-75
2024/03/22 17:42:07;;;;;;;4.60;2.00;;;;;;;;;;10409369;28;20049;-75
2024/03/22 17:47:09;;;;;;;3.95;1.83;;;;;;;;;;10405292;28;20119;-75
2024/03/22 17:52:13;;;;;;;5.13;2.67;;;;;;;;;;10394322;28;20589;-74
2024/03/22 17:57:15;;;;;;;4.65;1.80;;;;;;;;;;10408958;28;20589;-77
2024/03/22 18:02:17;;;;;;;4.72;2.10;;;;;;;;;;10397972;28;20534;-76
2024/03/22 18:07:21;;;;;;;6.95;2.60;;;;;;;;;;10405651;28;20529;-75
2024/03/22 18:12:23;;;;;;;;;;;;;;;;;;10410124;28;20045;-75
2024/03/22 18:17:25;;;;;;;4.60;2.58;;;;;;;;;;10410790;28;19932;-76
2024/03/22 18:22:29;;;;;;;8.77;3.45;;;;;;;;;;10408002;28;20041;-77
2024/03/22 18:27:31;;;;;;;5.82;2.50;;;;;;;;;;10405338;28;20041;-77
2024/03/22 18:32:33;;;;;;;6.32;2.67;;;;;;;;;;10402538;28;20041;-76
2024/03/22 18:37:39;;;;;;;6.97;2.80;;;;;;;;;;10407288;28;20052;-77
2024/03/22 18:42:43;;;;;;;10.07;3.30;;;;;;;;;;10419635;28;20080;-75
2024/03/22 18:47:44;;;;;;;7.50;2.75;;;;;;;;;;10420191;28;20041;-76
2024/03/22 18:52:48;;;;;;;7.18;2.70;;;;;;;;;;10416664;28;20045;-76
2024/03/22 18:57:49;;;;;;;4.50;2.55;;;;;;;;;;10411732;28;20051;-75
2024/03/22 19:02:51;;;;;;;8.70;3.22;;;;;;;;;;10406687;28;20049;-75
2024/03/22 19:07:56;;;;;;;5.70;2.70;;;;;;;;;;10402893;28;20041;-75
2024/03/22 19:12:59;;;;;;;7.88;3.47;;;;;;;;;;10406877;28;20365;-75
2024/03/22 19:18:03;;;;;;;6.63;2.38;;;;;;;;;;10409407;28;20110;-75
2024/03/22 19:23:06;;;;;;;7.00;2.60;;;;;;;;;;10433002;28;20047;-76
2024/03/22 19:28:09;;;;;;;5.25;2.25;;;;;;;;;;10433395;28;20053;-76
2024/03/22 19:33:11;;;;;;;6.47;3.28;;;;;;;;;;10429641;28;20117;-75
2024/03/22 19:38:14;;;;;;;4.43;2.30;;;;;;;;;;10421051;28;20048;-74
2024/03/22 19:43:16;;;;;;;5.82;2.40;;;;;;;;;;10419180;28;20048;-75
2024/03/22 19:48:20;;;;;;;5.13;2.20;;;;;;;;;;10424521;28;20420;-75
2024/03/22 19:53:25;;;;;;;3.97;2.28;;;;;;;;;;10438568;28;20513;-76
2024/03/22 19:58:28;;;;;;;8.30;2.28;;;;;;;;;;10443754;28;20056;-77
2024/03/22 20:03:31;;;;;;;6.03;2.00;;;;;;;;;;10412413;28;20041;-74
2024/03/22 20:08:35;;;;;;;4.78;2.10;;;;;;;;;;10432187;28;20041;-77
2024/03/22 20:13:37;;;;;;;5.82;2.35;;;;;;;;;;10432951;28;20454;-77
2024/03/22 20:18:39;;;;;;;4.43;1.80;;;;;;;;;;10438156;28;20048;-75
2024/03/22 20:23:42;;;;;;;2.53;1.60;;;;;;;;;;10438189;28;20357;-76
2024/03/22 20:28:44;;;;;;;;;;;;;;;;;;10418782;28;20041;-76
2024/03/22 20:33:47;;;;;;;6.05;2.13;;;;;;;;;;10418963;28;19974;-76
2024/03/22 20:38:51;;;;;;;3.97;2.15;;;;;;;;;;10436741;28;20355;-76
2024/03/22 20:43:53;;;;;;;5.80;2.50;;;;;;;;;;10446744;28;20167;-77
2024/03/22 20:48:57;;;;;;;5.13;2.72;;;;;;;;;;10442487;28;20053;-76
2024/03/22 20:54:02;;;;;;;9.10;3.80;;;;;;;;;;10450462;28;20131;-76
2024/03/22 20:59:06;;;;;;;5.32;2.40;;;;;;;;;;10433641;28;20043;-75
2024/03/22 21:04:08;;;;;;;8.57;3.08;;;;;;;;;;10443993;28;20389;-75
2024/03/22 21:09:12;;;;;;;6.45;3.00;;;;;;;;;;10435307;28;20053;-76
2024/03/22 21:14:17;;;;;;;5.38;2.17;;;;;;;;;;10427389;28;20509;-76
2024/03/22 21:19:27;;;;;;;5.55;2.20;;;;;;;;;;10429896;28;20481;-76
2024/03/22 21:24:31;;;;;;;5.05;2.08;;;;;;;;;;10441122;28;20136;-75
2024/03/22 21:29:34;;;;;;;4.30;2.00;;;;;;;;;;10427284;28;20075;-76
2024/03/22 21:34:38;;;;;;;2.72;1.45;;;;;;;;;;10436176;28;20032;-76
2024/03/22 21:39:41;;;;;;;5.40;1.95;;;;;;;;;;10447458;28;20048;-74
2024/03/22 21:44:43;;;;;;;4.25;1.63;;;;;;;;;;10467220;28;20047;-76
2024/03/22 21:49:47;;;;;;;2.80;1.40;;;;;;;;;;10482237;28;20052;-75
2024/03/22 21:54:50;;;;;;;2.25;1.30;;;;;;;;;;10484372;28;20051;-77
2024/03/22 21:59:52;;;;;;;;;;;;;;;;;;10476866;28;20068;-77
2024/03/22 22:04:54;;;;;;;3.03;1.73;;;;;;;;;;10477975;28;19924;-75
2024/03/22 22:10:01;;;;;;;4.00;1.63;;;;;;;;;;10479443;28;20052;-78
2024/03/22 22:15:04;;;;;;;5.88;2.45;;;;;;;;;;10477692;28;20440;-75
2024/03/22 22:20:08;;;;;;;5.07;1.67;;;;;;;;;;10482900;28;20055;-75
2024/03/22 22:25:12;;;;;;;3.78;1.98;;;;;;;;;;10475312;28;20035;-76
2024/03/22 22:30:15;;;;;;;4.00;1.73;;;;;;;;;;10483704;28;21913;-75
2024/03/22 22:35:19;;;;;;;3.42;1.73;;;;;;;;;;10475355;28;20405;-75
2024/03/22 22:40:24;;;;;;;5.60;1.98;;;;;;;;;;10475926;28;20397;-75
2024/03/22 22:45:32;;;;;;;3.05;1.65;;;;;;;;;;10476625;28;20100;-75
2024/03/22 22:50:37;;;;;;;2.40;1.45;;;;;;;;;;10480354;28;20082;-77
2024/03/22 22:55:40;;;;;;;3.60;1.42;;;;;;;;;;10465393;28;20036;-74
2024/03/22 23:00:45;;;;;;;3.80;1.60;;;;;;;;;;10475810;28;20048;-76
2024/03/22 23:05:48;;;;;;;2.72;1.50;;;;;;;;;;10493691;28;20590;-76
2024/03/22 23:10:51;;;;;;;3.30;1.60;;;;;;;;;;10460063;28;20401;-74
2024/03/22 23:15:55;;;;;;;3.67;1.77;;;;;;;;;;10473430;28;20032;-74
2024/03/22 23:20:59;;;;;;;3.72;2.00;;;;;;;;;;10483192;28;20044;-75
2024/03/22 23:26:03;;;;;;;4.32;1.90;;;;;;;;;;10479658;28;20052;-75
2024/03/22 23:31:07;;;;;;;5.97;1.98;;;;;;;;;;10472383;28;20044;-75
2024/03/22 23:36:10;;;;;;;4.35;2.20;;;;;;;;;;10461711;28;20040;-75
2024/03/22 23:41:14;;;;;;;3.70;2.10;;;;;;;;;;10463802;28;20052;-75
2024/03/22 23:46:16;;;;;;;4.45;2.00;;;;;;;;;;10475712;28;20041;-76
2024/03/22 23:51:18;;;;;;;3.88;2.00;;;;;;;;;;10474757;28;20047;-75
2024/03/22 23:56:22;;;;;;;2.92;2.00;;;;;;;;;;10472427;28;20409;-75
